Time;durP1;ratioP1;P1;durP2;ratioP2;P2;SDS_P1;SDS_P2;PMS_P1;PMS_P2;Temp;Humidity;BMP_temperature;BMP_pressure;BME280_temperature;BME280_humidity;BME280_pressure;Samples;Min_cycle;Max_cycle;Signal;HPM_P1;HPM_P2
2023/11/16 00:00:59;;;;;;;9.13;2.03;;;10.50;90.00;;;;;;9168864;19;20322;-70
2023/11/16 00:04:07;;;;;;;7.10;1.80;;;10.50;90.10;;;;;;9167693;19;20531;-70
2023/11/16 00:07:15;;;;;;;13.00;2.25;;;10.50;90.20;;;;;;9168768;19;20377;-71
2023/11/16 00:10:24;;;;;;;10.25;2.38;;;10.50;90.20;;;;;;9166684;19;20037;-71
2023/11/16 00:13:29;;;;;;;21.60;2.35;;;10.60;90.20;;;;;;9169139;19;20022;-71
2023/11/16 00:16:37;;;;;;;12.02;2.05;;;10.50;90.20;;;;;;9167928;19;20011;-71
2023/11/16 00:19:43;;;;;;;10.07;1.98;;;10.50;90.20;;;;;;9168247;19;20102;-72
2023/11/16 00:22:53;;;;;;;9.45;2.42;;;10.60;90.50;;;;;;9165315;19;20022;-72
2023/11/16 00:25:59;;;;;;;13.88;2.65;;;10.50;90.40;;;;;;9165041;19;20498;-72
2023/11/16 00:29:06;;;;;;;6.57;1.83;;;10.50;90.30;;;;;;9168296;19;20360;-72
2023/11/16 00:32:12;;;;;;;10.70;2.67;;;10.50;90.40;;;;;;9168049;19;20025;-71
2023/11/16 00:35:19;;;;;;;5.97;1.95;;;10.50;90.30;;;;;;9167947;19;20023;-71
2023/11/16 00:38:28;;;;;;;12.27;2.30;;;10.50;90.40;;;;;;9165048;19;20010;-71
2023/11/16 00:41:35;;;;;;;16.67;2.13;;;10.50;90.50;;;;;;9167115;19;20026;-71
2023/11/16 00:44:46;;;;;;;14.35;2.42;;;10.50;90.40;;;;;;9160506;19;20025;-71
2023/11/16 00:47:54;;;;;;;5.97;1.92;;;10.50;90.90;;;;;;9166170;19;20022;-71
2023/11/16 00:50:59;;;;;;;16.33;2.70;;;10.50;90.20;;;;;;9164400;19;20040;-70
2023/11/16 00:54:11;;;;;;;9.10;1.85;;;10.50;90.20;;;;;;9164889;19;20026;-70
2023/11/16 00:57:17;;;;;;;16.55;2.72;;;10.40;90.40;;;;;;9168114;19;20029;-69
2023/11/16 01:00:26;;;;;;;9.90;2.05;;;10.60;90.80;;;;;;9166350;19;20014;-70
2023/11/16 01:03:31;;;;;;;9.30;2.28;;;10.50;91.30;;;;;;9167001;19;20499;-70
2023/11/16 01:06:39;;;;;;;6.00;1.63;;;10.40;89.60;;;;;;9164060;19;20022;-70
2023/11/16 01:09:47;;;;;;;7.65;1.25;;;10.40;89.40;;;;;;9166406;19;20543;-70
2023/11/16 01:12:56;;;;;;;7.32;1.95;;;10.30;89.40;;;;;;9166164;19;20018;-70
2023/11/16 01:16:03;;;;;;;13.18;1.80;;;10.30;89.10;;;;;;9166183;19;20438;-70
2023/11/16 01:19:12;;;;;;;9.40;2.00;;;10.40;89.30;;;;;;9162713;19;20415;-69
2023/11/16 01:22:21;;;;;;;7.25;1.30;;;10.30;89.20;;;;;;9166325;19;20775;-69
2023/11/16 01:25:32;;;;;;;10.95;1.75;;;10.30;89.80;;;;;;9162050;19;20033;-69
2023/11/16 01:28:45;;;;;;;8.55;1.40;;;10.30;89.80;;;;;;9166742;19;20111;-69
2023/11/16 01:31:55;;;;;;;10.48;1.30;;;10.30;89.50;;;;;;9165842;19;20025;-72
2023/11/16 01:35:03;;;;;;;7.57;1.02;;;10.30;89.80;;;;;;9166296;19;20020;-70
2023/11/16 01:38:12;;;;;;;8.07;1.70;;;10.30;89.60;;;;;;9166057;19;20011;-70
2023/11/16 01:41:20;;;;;;;13.85;1.73;;;10.30;89.80;;;;;;9163458;19;20015;-69
2023/11/16 01:44:28;;;;;;;5.32;1.02;;;10.30;90.10;;;;;;9160615;19;20078;-69
2023/11/16 01:47:35;;;;;;;9.90;1.52;;;10.30;91.30;;;;;;9165745;19;20014;-69
2023/11/16 01:50:43;;;;;;;8.38;1.58;;;10.40;90.90;;;;;;9164467;19;20754;-69
2023/11/16 01:53:54;;;;;;;10.70;2.38;;;10.40;90.90;;;;;;9164482;19;20014;-69
2023/11/16 01:57:04;;;;;;;16.95;1.65;;;10.40;91.00;;;;;;9164661;19;20025;-69
2023/11/16 02:00:14;;;;;;;6.13;1.33;;;10.40;90.80;;;;;;9161715;19;20018;-69
2023/11/16 02:03:22;;;;;;;4.35;1.00;;;10.40;90.80;;;;;;9161948;19;20018;-70
2023/11/16 02:06:27;;;;;;;5.03;1.10;;;10.30;91.00;;;;;;9158746;19;20475;-71
2023/11/16 02:09:35;;;;;;;14.10;1.17;;;10.40;91.10;;;;;;9161669;19;20679;-71
2023/11/16 02:12:52;;;;;;;7.10;1.55;;;10.40;91.30;;;;;;9163790;19;20068;-70
2023/11/16 02:16:01;;;;;;;6.38;1.45;;;10.30;91.30;;;;;;9161264;19;20710;-69
2023/11/16 02:19:20;;;;;;;11.35;1.90;;;10.30;91.90;;;;;;9161826;19;20010;-71
2023/11/16 02:22:29;;;;;;;7.10;1.50;;;10.40;92.40;;;;;;9161962;19;20371;-70
2023/11/16 02:25:44;;;;;;;9.57;1.63;;;10.40;92.80;;;;;;9161851;19;20022;-72
2023/11/16 02:28:52;;;;;;;7.93;1.40;;;10.30;90.00;;;;;;9163029;19;20025;-72
2023/11/16 02:31:57;;;;;;;6.13;1.40;;;10.20;89.90;;;;;;9163709;19;20014;-69
2023/11/16 02:35:05;;;;;;;8.95;1.27;;;10.20;90.00;;;;;;9163358;19;20082;-70
2023/11/16 02:38:13;;;;;;;9.32;1.88;;;10.10;90.00;;;;;;9163668;19;20019;-70
2023/11/16 02:41:24;;;;;;;12.02;2.25;;;10.30;90.50;;;;;;9162967;19;20018;-69
2023/11/16 02:44:30;;;;;;;8.32;1.38;;;10.30;92.20;;;;;;9158752;19;20497;-69
2023/11/16 02:47:37;;;;;;;8.10;2.17;;;10.10;89.90;;;;;;9160523;19;20472;-70
2023/11/16 02:50:44;;;;;;;10.52;1.48;;;10.30;90.30;;;;;;9162183;19;20013;-69
2023/11/16 02:53:51;;;;;;;18.60;2.28;;;10.40;91.80;;;;;;9160106;19;20459;-72
2023/11/16 02:57:00;;;;;;;6.40;1.48;;;10.30;91.70;;;;;;9162280;19;20499;-70
2023/11/16 03:00:12;;;;;;;7.07;0.95;;;10.40;92.10;;;;;;9162363;19;20498;-69
2023/11/16 03:03:17;;;;;;;3.53;1.25;;;10.30;90.40;;;;;;9162231;19;20443;-69
2023/11/16 03:06:26;;;;;;;4.47;1.23;;;10.30;90.10;;;;;;9160121;19;20025;-69
2023/11/16 03:09:32;;;;;;;10.02;1.25;;;10.20;90.10;;;;;;9159606;19;20015;-72
2023/11/16 03:12:44;;;;;;;9.73;1.55;;;10.20;89.90;;;;;;9162219;19;20123;-69
2023/11/16 03:15:50;;;;;;;9.02;0.98;;;10.20;89.90;;;;;;9159583;19;20037;-69
2023/11/16 03:18:57;;;;;;;5.38;1.08;;;10.20;90.00;;;;;;9160474;19;20018;-68
2023/11/16 03:22:03;;;;;;;10.48;1.48;;;10.20;90.20;;;;;;9161164;19;20022;-69
2023/11/16 03:25:12;;;;;;;6.53;1.27;;;10.20;90.30;;;;;;9158268;19;20929;-68
2023/11/16 03:28:19;;;;;;;6.00;1.00;;;10.20;90.40;;;;;;9161469;19;20017;-69
2023/11/16 03:31:27;;;;;;;3.42;0.80;;;10.20;91.40;;;;;;9160977;19;20052;-68
2023/11/16 03:34:32;;;;;;;8.27;1.10;;;10.30;91.10;;;;;;9160494;19;20015;-70
2023/11/16 03:37:39;;;;;;;4.72;1.02;;;10.20;91.10;;;;;;9160759;19;20021;-68
2023/11/16 03:40:45;;;;;;;10.63;1.13;;;10.20;91.20;;;;;;9160250;19;20019;-69
2023/11/16 03:43:57;;;;;;;8.57;1.38;;;10.20;90.80;;;;;;9156133;19;20021;-71
2023/11/16 03:47:02;;;;;;;8.15;1.10;;;10.20;90.90;;;;;;9156309;19;20010;-70
2023/11/16 03:50:10;;;;;;;6.60;1.08;;;10.20;91.10;;;;;;9160550;19;20030;-68
2023/11/16 03:53:16;;;;;;;5.53;1.05;;;10.20;91.10;;;;;;9156490;19;20037;-68
2023/11/16 03:56:23;;;;;;;7.05;1.50;;;10.20;91.10;;;;;;9159093;19;20025;-69
2023/11/16 03:59:31;;;;;;;5.10;1.05;;;10.20;90.90;;;;;;9160878;19;20014;-68
2023/11/16 04:02:39;;;;;;;7.32;1.48;;;10.10;91.10;;;;;;9160039;19;20019;-69
2023/11/16 04:05:44;;;;;;;8.80;1.17;;;10.10;91.20;;;;;;9160244;19;20337;-70
2023/11/16 04:08:52;;;;;;;11.00;1.10;;;10.10;91.10;;;;;;9160545;19;20026;-70
2023/11/16 04:12:00;;;;;;;9.88;1.27;;;10.10;91.20;;;;;;9159590;19;20039;-71
2023/11/16 04:15:13;;;;;;;9.30;1.08;;;10.10;91.30;;;;;;9157601;19;20574;-68
2023/11/16 04:18:19;;;;;;;5.75;0.98;;;10.10;91.50;;;;;;9159363;19;20423;-69
2023/11/16 04:21:28;;;;;;;9.32;1.08;;;10.10;91.90;;;;;;9159205;19;20018;-71
2023/11/16 04:24:35;;;;;;;10.82;1.38;;;10.10;92.70;;;;;;9158770;19;20098;-71
2023/11/16 04:27:45;;;;;;;6.90;1.27;;;10.10;92.60;;;;;;9157144;19;20014;-71
2023/11/16 04:30:54;;;;;;;10.88;1.38;;;10.00;92.60;;;;;;9165796;19;20014;-71
2023/11/16 04:34:02;;;;;;;11.52;1.85;;;10.00;91.60;;;;;;9167739;19;20382;-71
2023/11/16 04:37:09;;;;;;;9.90;1.33;;;10.00;92.30;;;;;;9167817;19;20149;-71
2023/11/16 04:40:16;;;;;;;5.20;1.10;;;10.10;91.20;;;;;;9166980;19;20458;-71
2023/11/16 04:43:22;;;;;;;5.13;1.00;;;9.90;91.50;;;;;;9162892;19;20022;-71
2023/11/16 04:46:32;;;;;;;4.82;0.82;;;9.90;91.30;;;;;;9167036;19;20392;-71
2023/11/16 04:49:37;;;;;;;4.47;0.95;;;9.90;91.50;;;;;;9167805;19;20074;-71
2023/11/16 04:52:44;;;;;;;10.35;0.80;;;9.80;91.60;;;;;;9164921;19;20018;-71
2023/11/16 04:55:50;;;;;;;4.63;0.80;;;9.80;91.80;;;;;;9166736;19;20078;-71
2023/11/16 04:58:57;;;;;;;6.07;1.00;;;9.80;91.80;;;;;;9166733;19;20022;-71
2023/11/16 05:02:07;;;;;;;4.88;1.30;;;9.80;91.90;;;;;;9165666;19;20044;-71
2023/11/16 05:05:14;;;;;;;7.90;1.17;;;9.70;91.80;;;;;;9167136;19;20030;-71
2023/11/16 05:08:19;;;;;;;2.88;0.98;;;9.80;92.40;;;;;;9164082;19;20029;-71
2023/11/16 05:11:27;;;;;;;3.55;0.90;;;9.70;92.00;;;;;;9166189;19;20018;-71
2023/11/16 05:14:32;;;;;;;4.93;1.00;;;9.70;92.00;;;;;;9165885;19;20022;-71
2023/11/16 05:17:43;;;;;;;9.18;1.27;;;9.60;92.20;;;;;;9166366;19;20514;-71
2023/11/16 05:20:48;;;;;;;3.35;0.80;;;9.60;92.50;;;;;;9166715;19;20011;-71
2023/11/16 05:23:56;;;;;;;7.47;1.13;;;9.60;92.70;;;;;;9165271;19;20483;-71
2023/11/16 05:27:03;;;;;;;4.57;0.73;;;9.50;92.80;;;;;;9165278;19;20026;-71
2023/11/16 05:30:11;;;;;;;2.33;0.70;;;9.50;93.80;;;;;;9166594;19;20423;-71
2023/11/16 05:33:22;;;;;;;5.60;1.10;;;9.40;92.90;;;;;;9166082;19;20475;-71
2023/11/16 05:36:30;;;;;;;6.95;1.40;;;9.40;92.90;;;;;;9165411;19;20007;-70
2023/11/16 05:39:35;;;;;;;6.72;1.33;;;9.30;92.60;;;;;;9163322;19;20445;-71
2023/11/16 05:42:43;;;;;;;6.03;0.82;;;9.30;91.30;;;;;;9164888;19;20020;-70
2023/11/16 05:45:49;;;;;;;9.85;1.52;;;;;;;;;;9165299;19;20014;-70
2023/11/16 05:48:59;;;;;;;4.72;0.80;;;9.00;88.10;;;;;;9161812;19;20014;-70
2023/11/16 05:52:06;;;;;;;4.70;0.70;;;9.00;88.60;;;;;;9163938;19;20015;-70
2023/11/16 05:55:15;;;;;;;5.28;0.70;;;8.90;88.60;;;;;;9163251;19;20025;-70
2023/11/16 05:58:20;;;;;;;2.70;0.70;;;8.90;88.60;;;;;;9164353;19;20368;-70
2023/11/16 06:01:27;;;;;;;6.78;0.90;;;8.80;88.70;;;;;;9165370;19;20018;-70
2023/11/16 06:04:35;;;;;;;8.43;1.10;;;8.80;89.20;;;;;;9164207;19;20028;-69
2023/11/16 06:07:43;;;;;;;7.18;0.93;;;8.90;89.80;;;;;;9161736;19;20026;-69
2023/11/16 06:10:48;;;;;;;3.10;0.70;;;8.70;88.70;;;;;;9163860;19;20017;-70
2023/11/16 06:13:56;;;;;;;4.20;0.85;;;8.90;88.80;;;;;;9164162;19;20025;-70
2023/11/16 06:17:02;;;;;;;7.97;1.40;;;8.60;88.60;;;;;;9164148;19;20480;-70
2023/11/16 06:20:13;;;;;;;1.83;0.70;;;8.60;88.60;;;;;;9164236;19;20027;-70
2023/11/16 06:23:18;;;;;;;5.53;1.10;;;8.50;90.10;;;;;;9164695;19;20271;-70
2023/11/16 06:26:27;;;;;;;7.93;1.45;;;8.50;88.70;;;;;;9163681;19;20021;-71
2023/11/16 06:29:32;;;;;;;9.75;1.10;;;8.40;88.70;;;;;;9160946;19;20018;-70
2023/11/16 06:32:39;;;;;;;2.53;0.90;;;8.40;88.70;;;;;;9163429;19;20025;-69
2023/11/16 06:35:47;;;;;;;8.90;0.98;;;8.40;88.60;;;;;;9163648;19;20018;-69
2023/11/16 06:38:55;;;;;;;6.40;0.95;;;8.30;88.60;;;;;;9163898;19;20022;-69
2023/11/16 06:42:00;;;;;;;11.50;1.08;;;8.30;88.70;;;;;;9163448;19;20011;-69
2023/11/16 06:45:11;;;;;;;4.88;0.95;;;8.20;88.70;;;;;;9158611;19;20014;-70
2023/11/16 06:48:17;;;;;;;6.57;1.15;;;8.20;88.70;;;;;;9162213;19;20014;-70
2023/11/16 06:51:27;;;;;;;5.68;1.15;;;8.10;88.90;;;;;;9158377;19;20014;-70
2023/11/16 06:54:33;;;;;;;5.78;1.15;;;8.20;90.20;;;;;;9161836;19;20397;-70
2023/11/16 06:57:44;;;;;;;3.60;1.17;;;8.10;89.30;;;;;;9161961;19;20014;-69
2023/11/16 07:00:51;;;;;;;7.03;2.25;;;8.20;90.70;;;;;;9160497;19;20021;-70
2023/11/16 07:03:58;;;;;;;6.10;1.27;;;8.10;89.30;;;;;;9160206;19;20372;-71
2023/11/16 07:07:07;;;;;;;3.85;1.08;;;8.20;89.70;;;;;;9161629;19;20015;-70
2023/11/16 07:10:15;;;;;;;7.18;3.00;;;8.10;90.40;;;;;;9160785;19;20030;-69
2023/11/16 07:13:23;;;;;;;10.63;1.58;;;8.10;90.10;;;;;;9160854;19;20018;-70
2023/11/16 07:16:30;;;;;;;4.90;1.30;;;8.00;88.90;;;;;;9159688;19;20026;-70
2023/11/16 07:19:37;;;;;;;4.50;1.48;;;7.90;88.80;;;;;;9156804;19;20022;-71
2023/11/16 07:22:47;;;;;;;6.53;1.33;;;7.90;88.80;;;;;;9159368;19;20028;-71
2023/11/16 07:25:53;;;;;;;6.20;1.60;;;7.90;88.80;;;;;;9155927;19;21064;-70
2023/11/16 07:29:01;;;;;;;6.18;1.35;;;7.90;88.90;;;;;;9155912;19;20014;-72
2023/11/16 07:32:07;;;;;;;8.52;2.00;;;7.80;88.80;;;;;;9156481;19;20035;-71
2023/11/16 07:35:19;;;;;;;9.65;2.83;;;7.80;88.80;;;;;;9158968;19;20015;-71
2023/11/16 07:38:27;;;;;;;9.55;2.40;;;7.80;88.80;;;;;;9159853;19;20061;-71
2023/11/16 07:41:35;;;;;;;7.93;2.50;;;7.80;88.90;;;;;;9157681;19;20010;-70
2023/11/16 07:44:43;;;;;;;6.20;2.28;;;8.00;90.80;;;;;;9154793;19;20019;-71
2023/11/16 07:47:51;;;;;;;19.45;3.55;;;7.80;89.00;;;;;;9158851;19;20018;-70
2023/11/16 07:50:56;;;;;;;14.63;2.65;;;7.80;89.20;;;;;;9156671;19;20052;-68
2023/11/16 07:54:07;;;;;;;4.95;2.47;;;8.00;90.20;;;;;;9157683;19;20018;-69
2023/11/16 07:57:20;;;;;;;4.13;2.50;;;7.80;89.10;;;;;;9155283;19;20026;-69
2023/11/16 08:00:30;;;;;;;3.72;2.45;;;7.80;89.10;;;;;;9158910;19;20381;-67
2023/11/16 08:03:43;;;;;;;5.30;2.97;;;7.80;89.20;;;;;;9159780;19;20018;-72
2023/11/16 08:06:51;;;;;;;7.68;2.92;;;7.80;89.20;;;;;;9163969;19;20014;-69
2023/11/16 08:09:59;;;;;;;8.73;2.60;;;7.90;89.30;;;;;;9164689;19;20025;-69
2023/11/16 08:13:09;;;;;;;6.90;2.50;;;7.90;89.30;;;;;;9167374;19;20025;-68
2023/11/16 08:16:20;;;;;;;7.43;2.20;;;7.90;89.30;;;;;;9169065;19;20015;-70
2023/11/16 08:19:31;;;;;;;2.95;2.00;;;7.90;89.30;;;;;;9166663;19;20491;-67
2023/11/16 08:22:37;;;;;;;4.10;1.90;;;8.00;89.30;;;;;;9167945;19;20031;-69
2023/11/16 08:25:48;;;;;;;5.32;3.10;;;8.00;89.40;;;;;;9165833;19;20581;-70
2023/11/16 08:28:53;;;;;;;9.00;2.53;;;8.00;89.40;;;;;;9162981;19;20018;-68
2023/11/16 08:32:04;;;;;;;3.97;2.67;;;8.00;89.40;;;;;;9167429;19;20533;-69
2023/11/16 08:35:10;;;;;;;5.72;2.38;;;8.10;89.40;;;;;;9167365;19;20476;-68
2023/11/16 08:38:17;;;;;;;8.00;2.30;;;8.10;89.40;;;;;;9167400;19;20022;-70
2023/11/16 08:41:26;;;;;;;5.68;3.33;;;8.10;89.50;;;;;;9165764;19;20352;-70
2023/11/16 08:44:33;;;;;;;6.20;2.58;;;8.10;89.50;;;;;;9162618;19;20018;-70
2023/11/16 08:47:39;;;;;;;7.07;2.00;;;8.20;89.50;;;;;;9163369;19;20022;-70
2023/11/16 08:50:50;;;;;;;3.40;2.20;;;8.20;89.50;;;;;;9161327;19;20035;-68
2023/11/16 08:53:57;;;;;;;11.65;2.90;;;8.20;90.00;;;;;;9165276;19;20496;-68
2023/11/16 08:57:08;;;;;;;5.72;1.73;;;8.20;89.50;;;;;;9167330;19;20019;-70
2023/11/16 09:03:37;;;;;;;12.85;2.80;;;8.30;89.60;;;;;;9167083;19;20361;-69
2023/11/16 09:06:44;;;;;;;5.35;2.50;;;8.30;89.60;;;;;;9164928;19;20714;-69
2023/11/16 09:09:52;;;;;;;4.63;2.50;;;8.40;89.70;;;;;;9161754;19;20014;-69
2023/11/16 09:13:01;;;;;;;2.70;2.25;;;8.40;89.60;;;;;;9165696;19;20587;-69
2023/11/16 09:16:10;;;;;;;5.65;2.40;;;8.40;89.70;;;;;;9165211;19;20017;-69
2023/11/16 09:19:17;;;;;;;3.35;2.30;;;8.50;89.70;;;;;;9167093;19;20090;-69
2023/11/16 09:22:24;;;;;;;3.22;2.08;;;8.50;89.60;;;;;;9166466;19;20016;-69
2023/11/16 09:25:30;;;;;;;5.93;2.50;;;8.50;89.60;;;;;;9165821;19;20780;-69
2023/11/16 09:28:41;;;;;;;4.30;2.40;;;8.60;89.70;;;;;;9167408;19;20098;-70
2023/11/16 09:31:52;;;;;;;21.40;2.53;;;8.60;89.70;;;;;;9165434;19;20045;-69
2023/11/16 09:35:01;;;;;;;4.53;2.03;;;8.60;91.00;;;;;;9165889;19;20014;-69
2023/11/16 09:38:19;;;;;;;5.13;2.10;;;8.60;89.80;;;;;;9166261;19;20105;-70
2023/11/16 09:41:28;;;;;;;11.40;2.53;;;8.70;89.80;;;;;;9166610;19;20026;-72
2023/11/16 09:44:40;;;;;;;4.72;2.17;;;8.70;89.70;;;;;;9159441;19;20472;-70
2023/11/16 09:47:52;;;;;;;8.80;2.28;;;8.70;89.70;;;;;;9164315;19;20023;-69
2023/11/16 09:50:58;;;;;;;2.33;1.75;;;8.80;89.80;;;;;;9163448;19;20098;-69
2023/11/16 09:54:08;;;;;;;11.45;1.75;;;8.80;89.80;;;;;;9164519;19;20019;-70
2023/11/16 09:57:19;;;;;;;2.08;1.63;;;8.80;89.80;;;;;;9164272;19;20014;-69
2023/11/16 10:00:32;;;;;;;9.82;1.80;;;8.80;89.80;;;;;;9163694;19;20111;-69
2023/11/16 10:03:40;;;;;;;4.55;1.70;;;8.80;89.70;;;;;;9164416;19;20025;-69
2023/11/16 10:06:49;;;;;;;2.67;1.67;;;8.80;89.70;;;;;;9162394;19;20029;-69
2023/11/16 10:09:57;;;;;;;2.15;1.80;;;8.90;89.70;;;;;;9164081;19;20064;-71
2023/11/16 10:13:08;;;;;;;10.82;1.83;;;8.90;89.70;;;;;;9164458;19;20029;-68
2023/11/16 10:16:16;;;;;;;2.80;1.92;;;8.90;89.90;;;;;;9163521;19;20471;-69
2023/11/16 10:19:24;;;;;;;4.30;2.38;;;8.90;89.70;;;;;;9163947;19;20010;-70
2023/11/16 10:22:31;;;;;;;7.93;2.03;;;9.00;89.80;;;;;;9163827;19;20152;-70
2023/11/16 10:25:39;;;;;;;4.47;1.88;;;9.00;89.70;;;;;;9163340;19;20029;-69
2023/11/16 10:28:54;;;;;;;3.28;1.77;;;9.00;89.70;;;;;;9157300;19;20085;-68
2023/11/16 10:32:06;;;;;;;3.90;2.53;;;9.00;89.70;;;;;;9160666;19;20011;-68
2023/11/16 10:35:17;;;;;;;5.20;2.38;;;9.00;89.70;;;;;;9162350;19;20935;-68
2023/11/16 10:38:27;;;;;;;2.63;1.85;;;9.10;89.80;;;;;;9160790;19;20045;-68
2023/11/16 10:41:35;;;;;;;4.88;2.22;;;9.10;89.80;;;;;;9159497;19;20679;-68
2023/11/16 10:44:44;;;;;;;6.22;2.60;;;9.20;89.80;;;;;;9158779;19;20021;-68
2023/11/16 10:47:52;;;;;;;6.10;2.08;;;9.20;89.90;;;;;;9160827;19;20349;-70
2023/11/16 10:51:01;;;;;;;5.40;2.38;;;9.20;89.80;;;;;;9161689;19;20635;-68
2023/11/16 10:54:12;;;;;;;5.20;2.13;;;9.20;89.80;;;;;;9163059;19;20119;-69
2023/11/16 10:57:19;;;;;;;5.65;2.50;;;9.20;89.70;;;;;;9161933;19;20025;-70
2023/11/16 11:00:29;;;;;;;4.05;2.85;;;9.30;89.80;;;;;;9161659;19;20106;-67
2023/11/16 11:03:42;;;;;;;5.38;2.78;;;9.30;89.80;;;;;;9160825;19;20131;-71
2023/11/16 11:06:51;;;;;;;7.07;3.15;;;9.30;89.80;;;;;;9161830;19;20011;-69
2023/11/16 11:09:59;;;;;;;8.90;2.90;;;9.30;89.80;;;;;;9159767;19;20029;-68
2023/11/16 11:13:06;;;;;;;7.18;3.30;;;9.40;89.70;;;;;;9160951;19;20664;-69
2023/11/16 11:16:15;;;;;;;6.72;3.67;;;9.40;89.70;;;;;;9160205;19;20019;-68
2023/11/16 11:19:31;;;;;;;7.20;3.15;;;9.40;89.70;;;;;;9162338;19;20015;-70
2023/11/16 11:22:38;;;;;;;3.63;2.63;;;9.40;89.70;;;;;;9162293;19;20530;-69
2023/11/16 11:25:44;;;;;;;10.63;2.80;;;9.50;89.70;;;;;;9160860;19;20006;-69
2023/11/16 11:28:52;;;;;;;9.43;3.33;;;9.50;89.70;;;;;;9161463;19;20475;-69
2023/11/16 11:32:03;;;;;;;6.53;3.17;;;9.40;89.60;;;;;;9157815;19;20043;-69
2023/11/16 11:35:17;;;;;;;6.70;2.70;;;9.50;89.70;;;;;;9161376;19;20026;-69
2023/11/16 11:38:27;;;;;;;10.60;3.95;;;9.50;89.60;;;;;;9160269;19;20480;-69
2023/11/16 11:41:35;;;;;;;6.88;2.88;;;9.50;89.60;;;;;;9168745;19;20014;-68
2023/11/16 11:44:51;;;;;;;4.43;2.85;;;9.50;89.70;;;;;;9166196;19;20015;-69
2023/11/16 11:48:00;;;;;;;4.80;2.92;;;9.60;89.70;;;;;;9170747;19;20023;-69
2023/11/16 11:51:10;;;;;;;9.00;2.80;;;9.60;89.70;;;;;;9167994;19;20025;-69
2023/11/16 11:54:18;;;;;;;5.90;2.72;;;9.60;89.60;;;;;;9169457;19;20018;-69
2023/11/16 11:57:24;;;;;;;5.50;2.92;;;9.60;89.50;;;;;;9168931;19;20014;-69
2023/11/16 12:00:50;;;;;;;6.55;3.40;;;9.60;89.60;;;;;;9169652;19;20455;-69
2023/11/16 12:04:00;;;;;;;6.75;3.30;;;9.60;89.60;;;;;;9168856;19;20010;-69
2023/11/16 12:07:40;;;;;;;9.00;2.95;;;9.60;89.50;;;;;;9168625;19;20267;-69
2023/11/16 12:10:46;;;;;;;6.13;3.42;;;9.70;89.50;;;;;;9169571;19;20014;-69
2023/11/16 12:13:53;;;;;;;5.28;2.83;;;9.70;89.50;;;;;;9169221;19;20025;-68
2023/11/16 12:16:59;;;;;;;6.13;3.13;;;9.70;89.50;;;;;;9169145;19;20014;-69
2023/11/16 12:20:09;;;;;;;7.75;3.55;;;9.70;89.50;;;;;;9168652;19;20011;-69
2023/11/16 12:23:18;;;;;;;14.93;3.00;;;9.70;89.50;;;;;;9169019;19;20011;-69
2023/11/16 12:26:31;;;;;;;7.20;2.67;;;9.70;89.40;;;;;;9168364;19;20023;-69
2023/11/16 12:29:37;;;;;;;6.18;3.08;;;9.70;89.30;;;;;;9168814;19;20879;-68
2023/11/16 12:32:45;;;;;;;6.50;3.00;;;9.70;89.30;;;;;;9165368;19;20014;-70
2023/11/16 12:35:52;;;;;;;5.97;2.90;;;9.70;89.30;;;;;;9167719;19;20024;-69
2023/11/16 12:39:05;;;;;;;6.50;3.38;;;9.70;89.40;;;;;;9168681;19;20018;-69
2023/11/16 12:42:12;;;;;;;4.97;3.03;;;9.70;89.30;;;;;;9167308;19;20765;-70
2023/11/16 12:45:20;;;;;;;4.78;3.35;;;9.60;89.20;;;;;;9163918;19;20479;-69
2023/11/16 12:48:26;;;;;;;11.80;4.07;;;9.60;89.20;;;;;;9166687;19;20056;-69
2023/11/16 12:51:34;;;;;;;7.53;3.83;;;9.60;89.20;;;;;;9164678;19;20075;-69
2023/11/16 12:54:42;;;;;;;8.45;4.43;;;9.60;89.20;;;;;;9168244;19;20018;-70
2023/11/16 12:57:49;;;;;;;6.88;3.90;;;9.60;89.20;;;;;;9167237;19;20019;-69
2023/11/16 13:00:56;;;;;;;8.43;3.80;;;9.60;89.20;;;;;;9168564;19;20435;-69
2023/11/16 13:04:05;;;;;;;8.38;3.55;;;9.60;89.20;;;;;;9167907;19;20018;-69
2023/11/16 13:07:10;;;;;;;6.55;3.17;;;9.60;89.20;;;;;;9167492;19;20015;-70
2023/11/16 13:10:20;;;;;;;6.55;3.55;;;9.60;89.20;;;;;;9166779;19;20018;-68
2023/11/16 13:13:28;;;;;;;9.90;2.95;;;9.60;89.20;;;;;;9164506;19;20369;-70
2023/11/16 13:16:33;;;;;;;6.07;2.70;;;9.60;89.20;;;;;;9166477;19;20102;-69
2023/11/16 13:19:43;;;;;;;6.65;3.22;;;9.60;89.20;;;;;;9166969;19;20014;-69
2023/11/16 13:22:49;;;;;;;6.18;2.60;;;9.60;89.20;;;;;;9166229;19;20019;-69
2023/11/16 13:25:59;;;;;;;5.95;2.70;;;9.60;89.20;;;;;;9165781;19;20038;-72
2023/11/16 13:29:05;;;;;;;8.50;2.80;;;9.60;89.20;;;;;;9164050;19;20067;-69
2023/11/16 13:32:14;;;;;;;6.22;2.47;;;9.60;89.20;;;;;;9163717;19;20494;-69
2023/11/16 13:35:21;;;;;;;6.13;2.88;;;9.60;89.20;;;;;;9165546;19;20014;-69
2023/11/16 13:38:30;;;;;;;7.05;2.85;;;9.60;89.20;;;;;;9166203;19;20021;-71
2023/11/16 13:41:38;;;;;;;8.60;2.95;;;9.60;89.20;;;;;;9165533;19;20033;-68
2023/11/16 13:44:45;;;;;;;5.20;2.78;;;9.60;89.30;;;;;;9161986;19;20019;-68
2023/11/16 13:47:51;;;;;;;9.25;3.25;;;9.60;89.70;;;;;;9166513;19;20022;-71
2023/11/16 13:51:00;;;;;;;5.90;2.58;;;9.70;91.90;;;;;;9166973;19;20010;-69
2023/11/16 13:54:06;;;;;;;9.07;3.40;;;9.70;91.00;;;;;;9166699;19;20019;-70
2023/11/16 13:57:16;;;;;;;5.85;3.25;;;9.60;90.60;;;;;;9166362;19;20015;-69
2023/11/16 14:00:27;;;;;;;8.38;2.58;;;9.60;91.60;;;;;;9165811;19;20449;-68
2023/11/16 14:03:35;;;;;;;8.65;3.05;;;9.50;89.10;;;;;;9166888;19;20360;-70
2023/11/16 14:06:42;;;;;;;9.65;3.13;;;9.60;90.40;;;;;;9165751;19;20003;-70
2023/11/16 14:09:50;;;;;;;8.50;3.00;;;9.60;90.10;;;;;;9164839;19;20018;-69
2023/11/16 14:12:58;;;;;;;5.43;3.10;;;9.50;89.10;;;;;;9163829;19;20115;-69
2023/11/16 14:16:06;;;;;;;7.25;3.67;;;9.50;89.10;;;;;;9163955;19;20022;-69
2023/11/16 14:19:12;;;;;;;6.18;3.00;;;9.50;89.10;;;;;;9165736;19;20420;-68
2023/11/16 14:22:19;;;;;;;6.95;3.22;;;9.50;89.10;;;;;;9166197;19;20022;-69
2023/11/16 14:25:25;;;;;;;6.88;4.05;;;9.50;89.10;;;;;;9159968;19;20018;-69
2023/11/16 14:28:45;;;;;;;5.78;3.25;;;9.50;89.10;;;;;;9163469;19;20018;-68
2023/11/16 14:31:50;;;;;;;4.68;2.70;;;9.40;89.00;;;;;;9164623;19;20421;-69
2023/11/16 14:34:58;;;;;;;5.35;2.45;;;9.40;90.00;;;;;;9163366;19;20011;-68
2023/11/16 14:38:21;;;;;;;4.40;2.25;;;9.40;89.00;;;;;;9163710;19;20476;-69
2023/11/16 14:41:28;;;;;;;12.00;2.85;;;9.40;89.00;;;;;;9162775;19;20586;-68
2023/11/16 14:44:36;;;;;;;7.47;2.70;;;9.40;89.00;;;;;;9158955;19;20655;-71
2023/11/16 14:47:44;;;;;;;12.85;3.85;;;9.40;89.10;;;;;;9164055;19;20011;-68
2023/11/16 14:50:50;;;;;;;3.92;2.65;;;9.40;89.10;;;;;;9160185;19;20010;-69
2023/11/16 14:53:58;;;;;;;4.70;2.47;;;9.30;89.00;;;;;;9157649;19;20014;-71
2023/11/16 14:57:04;;;;;;;7.07;2.65;;;9.40;89.10;;;;;;9162611;19;20052;-71
2023/11/16 15:00:21;;;;;;;5.97;2.67;;;9.30;89.10;;;;;;9163705;19;20030;-71
2023/11/16 15:03:26;;;;;;;6.13;3.00;;;9.30;89.10;;;;;;9162557;19;20388;-70
2023/11/16 15:06:34;;;;;;;7.15;3.38;;;9.30;89.10;;;;;;9162536;19;20019;-70
2023/11/16 15:09:41;;;;;;;5.40;3.10;;;9.30;89.10;;;;;;9163425;19;20503;-72
2023/11/16 15:12:50;;;;;;;6.75;3.20;;;9.30;89.20;;;;;;9161019;19;20019;-71
2023/11/16 15:15:58;;;;;;;6.30;2.78;;;9.30;89.10;;;;;;9163268;19;20022;-70
2023/11/16 15:19:06;;;;;;;13.80;4.07;;;9.30;89.20;;;;;;9164190;19;20010;-70
2023/11/16 15:22:12;;;;;;;8.98;3.20;;;9.40;90.80;;;;;;9161889;19;20027;-70
2023/11/16 15:25:19;;;;;;;7.82;3.38;;;9.40;90.10;;;;;;9163298;19;20019;-70
2023/11/16 15:28:24;;;;;;;6.68;3.25;;;9.30;89.20;;;;;;9160559;19;21007;-69
2023/11/16 15:31:40;;;;;;;10.13;3.10;;;9.20;89.10;;;;;;9161260;19;20038;-69
2023/11/16 15:34:46;;;;;;;11.32;3.50;;;9.20;89.10;;;;;;9160174;19;20018;-70
2023/11/16 15:37:56;;;;;;;7.45;2.97;;;9.20;89.10;;;;;;9163390;19;20018;-70
2023/11/16 15:41:03;;;;;;;13.70;3.65;;;9.20;89.20;;;;;;9160093;19;21341;-71
2023/11/16 15:44:11;;;;;;;8.18;3.08;;;9.20;89.20;;;;;;9156666;19;20018;-69
2023/11/16 15:47:18;;;;;;;11.52;3.08;;;9.20;89.20;;;;;;9161545;19;20029;-70
2023/11/16 15:50:28;;;;;;;7.28;3.25;;;9.10;89.10;;;;;;9160486;19;20014;-71
2023/11/16 15:53:33;;;;;;;8.50;3.05;;;9.10;89.10;;;;;;9158143;19;20022;-71
2023/11/16 15:56:41;;;;;;;5.45;2.97;;;9.10;89.20;;;;;;9159870;19;20015;-71
2023/11/16 15:59:46;;;;;;;10.07;3.40;;;9.00;89.10;;;;;;9161575;19;20099;-71
2023/11/16 16:02:56;;;;;;;5.15;3.42;;;9.00;89.10;;;;;;9161756;19;20352;-70
2023/11/16 16:06:01;;;;;;;6.72;3.20;;;9.00;89.10;;;;;;9160073;19;20010;-69
2023/11/16 16:09:09;;;;;;;6.38;3.28;;;9.00;89.10;;;;;;9158924;19;20396;-70
2023/11/16 16:12:15;;;;;;;7.72;2.90;;;8.90;89.10;;;;;;9159731;19;20030;-70
2023/11/16 16:15:22;;;;;;;9.85;3.28;;;8.80;89.00;;;;;;9157512;19;20037;-70
2023/11/16 16:18:30;;;;;;;6.30;3.55;;;8.80;89.10;;;;;;9155949;19;20022;-70
2023/11/16 16:21:38;;;;;;;12.60;3.60;;;8.80;89.10;;;;;;9158129;19;20022;-71
2023/11/16 16:24:43;;;;;;;7.82;3.35;;;8.80;89.20;;;;;;9159242;19;20023;-69
2023/11/16 16:27:51;;;;;;;12.63;3.92;;;8.70;89.10;;;;;;9167985;19;20030;-68
2023/11/16 16:30:58;;;;;;;7.18;3.67;;;8.70;89.10;;;;;;9166709;19;20018;-69